createdAt,value
2023-03-04T00:00:38.728Z,0
2023-03-04T00:01:41.555Z,0
2023-03-04T00:03:00.450Z,0
2023-03-04T00:04:04.671Z,0
2023-03-04T00:05:08.300Z,0
2023-03-04T00:06:12.023Z,0
2023-03-04T00:07:15.193Z,0
2023-03-04T00:08:19.165Z,0
2023-03-04T00:09:22.195Z,0
2023-03-04T00:10:24.120Z,0
2023-03-04T00:11:27.214Z,0
2023-03-04T00:12:30.622Z,0
2023-03-04T00:13:33.422Z,0
2023-03-04T00:14:36.828Z,0
2023-03-04T00:15:40.469Z,0
2023-03-04T00:16:43.667Z,0
2023-03-04T00:18:51.733Z,0
2023-03-04T00:19:55.706Z,0
2023-03-04T00:20:59.193Z,0
2023-03-04T00:22:02.463Z,0
2023-03-04T00:23:05.604Z,0
2023-03-04T00:24:09.252Z,0
2023-03-04T00:25:14.598Z,0
2023-03-04T00:26:18.119Z,0
2023-03-04T00:27:21.674Z,0
2023-03-04T00:28:24.502Z,0
2023-03-04T00:29:28.060Z,0
2023-03-04T00:30:31.323Z,0
2023-03-04T00:31:34.613Z,0
2023-03-04T00:32:37.750Z,0
2023-03-04T00:33:56.724Z,0
2023-03-04T00:35:01.231Z,0
2023-03-04T00:36:05.042Z,0
2023-03-04T00:37:23.656Z,0
2023-03-04T00:38:26.232Z,0
2023-03-04T00:39:29.594Z,0
2023-03-04T00:40:32.049Z,0
2023-03-04T00:41:35.912Z,0
2023-03-04T00:42:39.568Z,0
2023-03-04T00:43:43.557Z,0
2023-03-04T00:44:46.263Z,0
2023-03-04T00:45:49.807Z,0
2023-03-04T00:46:53.363Z,0
2023-03-04T00:47:56.428Z,0
2023-03-04T00:48:59.662Z,0
2023-03-04T00:50:03.853Z,0
2023-03-04T00:51:07.783Z,0
2023-03-04T00:52:10.966Z,0
2023-03-04T00:53:14.494Z,0
2023-03-04T00:54:17.551Z,0
2023-03-04T00:55:20.642Z,0
2023-03-04T00:56:24.073Z,0
2023-03-04T00:57:26.512Z,0
2023-03-04T00:58:29.793Z,0
2023-03-04T00:59:32.234Z,0
2023-03-04T01:00:34.708Z,0
2023-03-04T01:01:38.239Z,0
2023-03-04T01:02:41.752Z,0
2023-03-04T01:03:45.177Z,0
2023-03-04T01:04:48.908Z,0
2023-03-04T01:05:53.028Z,0
2023-03-04T01:06:56.458Z,0
2023-03-04T01:07:59.181Z,0
2023-03-04T01:09:01.776Z,0
2023-03-04T01:10:05.439Z,0
2023-03-04T01:11:07.886Z,0
2023-03-04T01:12:10.882Z,0
2023-03-04T01:13:13.703Z,0
2023-03-04T01:14:16.995Z,0
2023-03-04T01:15:20.121Z,0
2023-03-04T01:16:23.482Z,0
2023-03-04T01:17:26.085Z,0
2023-03-04T01:18:29.140Z,0
2023-03-04T01:19:32.613Z,0
2023-03-04T01:20:36.076Z,0
2023-03-04T01:21:39.872Z,0
2023-03-04T01:22:42.643Z,0
2023-03-04T01:23:45.827Z,0
2023-03-04T01:24:49.013Z,0
2023-03-04T01:25:51.698Z,0
2023-03-04T01:26:55.431Z,0
2023-03-04T01:27:58.165Z,0
2023-03-04T01:29:01.166Z,0
2023-03-04T01:30:03.346Z,0
2023-03-04T01:31:06.789Z,0
2023-03-04T01:32:10.000Z,0
2023-03-04T01:33:13.129Z,0
2023-03-04T01:34:16.142Z,0
2023-03-04T01:35:19.989Z,0
2023-03-04T01:36:23.251Z,0
2023-03-04T01:37:27.400Z,0
2023-03-04T01:38:31.479Z,0
2023-03-04T01:39:35.214Z,0
2023-03-04T01:40:38.661Z,0
2023-03-04T01:41:42.392Z,0
2023-03-04T01:42:45.508Z,0
2023-03-04T01:43:48.914Z,0
2023-03-04T01:44:51.816Z,0
2023-03-04T01:45:55.032Z,0
2023-03-04T01:46:58.537Z,0
2023-03-04T01:48:02.276Z,0
2023-03-04T01:49:05.024Z,0
2023-03-04T01:50:09.536Z,0
2023-03-04T01:51:12.894Z,0
2023-03-04T01:52:15.963Z,0
2023-03-04T01:53:19.837Z,0
2023-03-04T01:54:23.212Z,0
2023-03-04T01:55:26.070Z,0
2023-03-04T01:56:29.339Z,0
2023-03-04T01:57:32.531Z,0
2023-03-04T01:58:34.998Z,0
2023-03-04T01:59:38.626Z,0
2023-03-04T02:00:41.794Z,0
2023-03-04T02:01:45.149Z,0
2023-03-04T02:02:48.504Z,0
2023-03-04T02:03:51.693Z,0
2023-03-04T02:04:54.472Z,0
2023-03-04T02:05:57.629Z,0
2023-03-04T02:07:00.637Z,0
2023-03-04T02:08:04.410Z,0
2023-03-04T02:09:08.511Z,0
2023-03-04T02:10:12.672Z,0
2023-03-04T02:11:16.422Z,0
2023-03-04T02:12:19.862Z,0
2023-03-04T02:13:22.937Z,0
2023-03-04T02:14:26.430Z,0
2023-03-04T02:15:30.266Z,0
2023-03-04T02:16:33.442Z,0
2023-03-04T02:17:36.544Z,0
2023-03-04T02:18:39.887Z,0
2023-03-04T02:19:43.071Z,0
2023-03-04T02:20:46.481Z,0
2023-03-04T02:21:49.864Z,0
2023-03-04T02:22:53.373Z,0
2023-03-04T02:23:55.810Z,0
2023-03-04T02:25:00.032Z,0
2023-03-04T02:26:03.763Z,0
2023-03-04T02:27:06.746Z,0
2023-03-04T02:28:09.837Z,0
2023-03-04T02:29:12.644Z,0
2023-03-04T02:30:15.444Z,0
2023-03-04T02:31:18.135Z,0
2023-03-04T02:32:21.618Z,0
2023-03-04T02:33:25.548Z,0
2023-03-04T02:34:28.374Z,0
2023-03-04T02:35:31.497Z,0
2023-03-04T02:36:35.515Z,0
2023-03-04T02:37:38.622Z,0
2023-03-04T02:38:42.042Z,0
2023-03-04T02:39:44.751Z,0
2023-03-04T02:40:48.388Z,0
2023-03-04T02:41:51.828Z,0
2023-03-04T02:42:55.637Z,0
2023-03-04T02:43:59.033Z,0
2023-03-04T02:45:03.119Z,0
2023-03-04T02:46:06.252Z,0
2023-03-04T02:47:09.687Z,0
2023-03-04T02:48:12.538Z,0
2023-03-04T02:49:16.196Z,0
2023-03-04T02:50:19.262Z,0
2023-03-04T02:51:22.369Z,0
2023-03-04T02:52:25.711Z,0
2023-03-04T02:53:28.790Z,0
2023-03-04T02:54:32.128Z,0
2023-03-04T02:55:35.494Z,0
2023-03-04T02:56:39.599Z,0
2023-03-04T02:57:43.325Z,0
2023-03-04T02:58:46.099Z,0
2023-03-04T02:59:49.494Z,0
2023-03-04T03:00:52.650Z,0
2023-03-04T03:01:55.683Z,0
2023-03-04T03:03:00.042Z,0
2023-03-04T03:04:03.720Z,0
2023-03-04T03:05:06.891Z,0
2023-03-04T03:06:09.764Z,0
2023-03-04T03:07:12.857Z,0
2023-03-04T03:08:16.218Z,0
2023-03-04T03:09:18.927Z,0
2023-03-04T03:10:22.042Z,0
2023-03-04T03:11:26.711Z,0
2023-03-04T03:12:30.873Z,0
2023-03-04T03:13:33.673Z,0
2023-03-04T03:14:37.091Z,0
2023-03-04T03:15:39.890Z,0
2023-03-04T03:16:42.890Z,0
2023-03-04T03:17:46.196Z,0
2023-03-04T03:18:49.120Z,0
2023-03-04T03:19:52.603Z,0
2023-03-04T03:20:55.194Z,0
2023-03-04T03:21:58.193Z,0
2023-03-04T03:23:00.911Z,0
2023-03-04T03:24:04.675Z,0
2023-03-04T03:25:07.396Z,0
2023-03-04T03:26:10.774Z,0
2023-03-04T03:27:14.387Z,0
2023-03-04T03:28:18.464Z,0
2023-03-04T03:29:21.863Z,0
2023-03-04T03:30:25.226Z,0
2023-03-04T03:31:28.394Z,0
2023-03-04T03:32:32.008Z,0
2023-03-04T03:33:35.837Z,0
2023-03-04T03:34:39.247Z,0
2023-03-04T03:35:42.672Z,0
2023-03-04T03:36:46.405Z,0
2023-03-04T03:37:49.242Z,0
2023-03-04T03:38:52.228Z,0
2023-03-04T03:39:55.272Z,0
2023-03-04T03:40:58.436Z,0
2023-03-04T03:42:01.568Z,0
2023-03-04T03:43:04.683Z,0
2023-03-04T03:44:08.622Z,0
2023-03-04T03:45:11.955Z,0
2023-03-04T03:46:14.892Z,0
2023-03-04T03:47:18.222Z,0
2023-03-04T03:48:21.699Z,0
2023-03-04T03:49:24.417Z,0
2023-03-04T03:50:27.423Z,0
2023-03-04T03:51:30.427Z,0
2023-03-04T03:52:33.133Z,0
2023-03-04T03:53:36.268Z,0
2023-03-04T03:54:39.292Z,0
2023-03-04T03:55:42.324Z,0
2023-03-04T03:56:46.348Z,0
2023-03-04T03:57:49.477Z,0
2023-03-04T03:58:52.726Z,0
2023-03-04T03:59:56.310Z,0
2023-03-04T04:01:00.100Z,0
2023-03-04T04:02:03.371Z,0
2023-03-04T04:03:07.852Z,0
2023-03-04T04:04:11.786Z,0
2023-03-04T04:05:14.282Z,0
2023-03-04T04:06:17.390Z,0
2023-03-04T04:07:20.766Z,0
2023-03-04T04:08:23.284Z,0
2023-03-04T04:09:26.734Z,0
2023-03-04T04:10:29.511Z,0
2023-03-04T04:11:32.553Z,0
2023-03-04T04:12:35.584Z,0
2023-03-04T04:13:39.430Z,0
2023-03-04T04:14:41.903Z,0
2023-03-04T04:15:45.523Z,0
2023-03-04T04:16:48.696Z,0
2023-03-04T04:17:52.742Z,0
2023-03-04T04:18:56.117Z,0
2023-03-04T04:19:59.179Z,0
2023-03-04T04:21:03.013Z,0
2023-03-04T04:22:05.522Z,0
2023-03-04T04:23:07.970Z,0
2023-03-04T04:24:11.350Z,0
2023-03-04T04:25:14.975Z,0
2023-03-04T04:26:17.803Z,0
2023-03-04T04:27:20.890Z,0
2023-03-04T04:28:23.902Z,0
2023-03-04T04:29:26.754Z,0
2023-03-04T04:30:29.812Z,0
2023-03-04T04:31:33.955Z,0
2023-03-04T04:32:37.458Z,0
2023-03-04T04:33:40.873Z,0
2023-03-04T04:34:43.929Z,0
2023-03-04T04:35:47.317Z,0
2023-03-04T04:36:50.744Z,0
2023-03-04T04:37:53.849Z,0
2023-03-04T04:38:56.774Z,0
2023-03-04T04:39:59.843Z,0
2023-03-04T04:41:03.499Z,0
2023-03-04T04:42:06.503Z,0
2023-03-04T04:43:08.961Z,0
2023-03-04T04:44:11.462Z,0
2023-03-04T04:45:14.902Z,0
2023-03-04T04:46:18.087Z,0
2023-03-04T04:47:22.600Z,0
2023-03-04T04:48:26.443Z,0
2023-03-04T04:49:28.947Z,0
2023-03-04T04:50:33.087Z,0
2023-03-04T04:51:36.353Z,0
2023-03-04T04:52:39.708Z,0
2023-03-04T04:53:42.768Z,0
2023-03-04T04:54:46.118Z,0
2023-03-04T04:55:48.851Z,0
2023-03-04T04:56:52.030Z,0
2023-03-04T04:57:55.394Z,0
2023-03-04T04:58:58.202Z,0
2023-03-04T05:00:01.956Z,0
2023-03-04T05:01:04.990Z,0
2023-03-04T05:02:08.413Z,0
2023-03-04T05:03:12.009Z,0
2023-03-04T05:04:15.707Z,0
2023-03-04T05:05:18.891Z,0
2023-03-04T05:06:21.577Z,0
2023-03-04T05:07:24.800Z,0
2023-03-04T05:08:28.160Z,0
2023-03-04T05:09:31.240Z,0
2023-03-04T05:10:34.329Z,0
2023-03-04T05:11:36.769Z,0
2023-03-04T05:12:40.136Z,0
2023-03-04T05:13:43.022Z,0
2023-03-04T05:14:46.397Z,0
2023-03-04T05:15:49.149Z,0
2023-03-04T05:16:51.817Z,0
2023-03-04T05:17:55.217Z,0
2023-03-04T05:18:58.791Z,0
2023-03-04T05:20:02.165Z,0
2023-03-04T05:21:05.321Z,0
2023-03-04T05:22:08.127Z,0
2023-03-04T05:23:11.507Z,0
2023-03-04T05:24:13.573Z,0
2023-03-04T05:25:16.945Z,4
2023-03-04T05:26:19.871Z,0
2023-03-04T05:27:23.522Z,0
2023-03-04T05:28:26.315Z,4
2023-03-04T05:29:29.311Z,0
2023-03-04T05:30:31.866Z,4
2023-03-04T05:31:35.312Z,4
2023-03-04T05:32:38.050Z,8
2023-03-04T05:33:41.654Z,8
2023-03-04T05:34:45.231Z,12
2023-03-04T05:35:48.160Z,12
2023-03-04T05:36:51.305Z,12
2023-03-04T05:37:54.672Z,20
2023-03-04T05:38:57.168Z,24
2023-03-04T05:40:00.833Z,24
2023-03-04T05:41:03.712Z,32
2023-03-04T05:42:06.792Z,36
2023-03-04T05:43:09.582Z,44
2023-03-04T05:44:12.292Z,48
2023-03-04T05:45:15.981Z,60
2023-03-04T05:46:19.792Z,76
2023-03-04T05:47:23.750Z,84
2023-03-04T05:48:26.471Z,96
2023-03-04T05:49:29.922Z,116
2023-03-04T05:50:34.104Z,124
2023-03-04T05:51:37.239Z,140
2023-03-04T05:52:40.304Z,152
2023-03-04T05:53:43.121Z,172
2023-03-04T05:54:45.659Z,180
2023-03-04T05:55:48.454Z,200
2023-03-04T05:56:51.822Z,224
2023-03-04T05:57:54.819Z,244
2023-03-04T05:58:57.550Z,264
2023-03-04T06:00:00.650Z,288
2023-03-04T06:01:03.877Z,296
2023-03-04T06:02:06.355Z,336
2023-03-04T06:03:10.371Z,360
2023-03-04T06:04:13.544Z,388
2023-03-04T06:05:17.212Z,420
2023-03-04T06:06:21.087Z,448
2023-03-04T06:07:24.423Z,464
2023-03-04T06:08:27.598Z,476
2023-03-04T06:09:30.716Z,496
2023-03-04T06:10:34.715Z,500
2023-03-04T06:11:36.960Z,512
2023-03-04T06:12:40.313Z,572
2023-03-04T06:13:42.837Z,576
2023-03-04T06:14:45.683Z,500
2023-03-04T06:15:49.449Z,468
2023-03-04T06:16:52.971Z,508
2023-03-04T06:17:56.328Z,580
2023-03-04T06:18:59.267Z,604
2023-03-04T06:20:02.276Z,560
2023-03-04T06:21:06.132Z,580
2023-03-04T06:22:09.703Z,660
2023-03-04T06:23:12.925Z,688
2023-03-04T06:24:15.912Z,768
2023-03-04T06:25:19.245Z,732
2023-03-04T06:26:22.319Z,688
2023-03-04T06:27:25.157Z,684
2023-03-04T06:28:27.600Z,808
2023-03-04T06:29:30.920Z,996
2023-03-04T06:30:34.087Z,1020
2023-03-04T06:31:37.418Z,992
2023-03-04T06:32:41.173Z,976
2023-03-04T06:33:43.955Z,1060
2023-03-04T06:34:47.041Z,1112
2023-03-04T06:35:49.648Z,1188
2023-03-04T06:36:53.012Z,1396
2023-03-04T06:37:56.864Z,1536
2023-03-04T06:39:00.248Z,1640
2023-03-04T06:40:02.981Z,1744
2023-03-04T06:41:05.504Z,1892
2023-03-04T06:42:08.011Z,1828
2023-03-04T06:43:10.918Z,1892
2023-03-04T06:44:13.341Z,1920
2023-03-04T06:45:16.176Z,1896
2023-03-04T06:46:19.648Z,1928
2023-03-04T06:47:23.349Z,1976
2023-03-04T06:48:26.780Z,2268
2023-03-04T06:49:30.243Z,2724
2023-03-04T06:50:33.720Z,2300
2023-03-04T06:51:37.763Z,2548
2023-03-04T06:52:40.662Z,2360
2023-03-04T06:53:44.498Z,2128
2023-03-04T06:54:47.850Z,2420
2023-03-04T06:55:50.999Z,2436
2023-03-04T06:56:54.072Z,2508
2023-03-04T06:57:56.317Z,2484
2023-03-04T06:58:59.947Z,2524
2023-03-04T07:00:03.770Z,2364
2023-03-04T07:01:07.188Z,2216
2023-03-04T07:02:11.296Z,2148
2023-03-04T07:03:14.499Z,2228
2023-03-04T07:04:17.722Z,2476
2023-03-04T07:05:21.103Z,2720
2023-03-04T07:06:24.507Z,2648
2023-03-04T07:07:27.501Z,2480
2023-03-04T07:08:30.019Z,2292
2023-03-04T07:09:33.609Z,2304
2023-03-04T07:10:37.012Z,2244
2023-03-04T07:11:40.152Z,2264
2023-03-04T07:12:42.872Z,2332
2023-03-04T07:13:45.889Z,2440
2023-03-04T07:14:49.349Z,2764
2023-03-04T07:15:52.844Z,3060
2023-03-04T07:16:56.156Z,3008
2023-03-04T07:17:58.969Z,3080
2023-03-04T07:19:01.991Z,3364
2023-03-04T07:20:05.056Z,3432
2023-03-04T07:21:08.413Z,3592
2023-03-04T07:22:11.229Z,3888
2023-03-04T07:23:14.219Z,4072
2023-03-04T07:24:17.504Z,4196
2023-03-04T07:25:20.816Z,4408
2023-03-04T07:26:23.931Z,4412
2023-03-04T07:27:26.913Z,4328
2023-03-04T07:28:30.575Z,4212
2023-03-04T07:29:33.449Z,4076
2023-03-04T07:30:36.242Z,3948
2023-03-04T07:31:39.578Z,3860
2023-03-04T07:32:43.746Z,3928
2023-03-04T07:33:47.452Z,3920
2023-03-04T07:34:50.028Z,3800
2023-03-04T07:35:53.429Z,3744
2023-03-04T07:36:55.592Z,3824
2023-03-04T07:37:58.960Z,4044
2023-03-04T07:39:02.335Z,4228
2023-03-04T07:40:05.456Z,4532
2023-03-04T07:41:09.364Z,4696
2023-03-04T07:42:12.619Z,4816
2023-03-04T07:43:15.057Z,4888
2023-03-04T07:44:18.181Z,5248
2023-03-04T07:45:22.227Z,6396
2023-03-04T07:46:25.963Z,6468
2023-03-04T07:47:29.061Z,6472
2023-03-04T07:48:32.151Z,6780
2023-03-04T07:49:35.517Z,6212
2023-03-04T07:50:38.766Z,5920
2023-03-04T07:51:42.189Z,6348
2023-03-04T07:52:45.927Z,6156
2023-03-04T07:53:48.744Z,6112
2023-03-04T07:54:52.753Z,6740
2023-03-04T07:55:55.836Z,6500
2023-03-04T07:56:59.733Z,5956
2023-03-04T07:58:03.154Z,5488
2023-03-04T07:59:06.635Z,5032
2023-03-04T08:00:10.458Z,5136
2023-03-04T08:01:14.197Z,5260
2023-03-04T08:02:17.728Z,5168
2023-03-04T08:03:20.897Z,5104
2023-03-04T08:04:23.937Z,5152
2023-03-04T08:05:26.940Z,4952
2023-03-04T08:06:29.815Z,4780
2023-03-04T08:07:33.158Z,4672
2023-03-04T08:08:36.274Z,4684
2023-03-04T08:09:38.706Z,4804
2023-03-04T08:10:41.431Z,4936
2023-03-04T08:11:44.272Z,5216
2023-03-04T08:12:48.066Z,5392
2023-03-04T08:13:51.408Z,5416
2023-03-04T08:14:54.828Z,5548
2023-03-04T08:15:57.921Z,5828
2023-03-04T08:17:01.708Z,6036
2023-03-04T08:18:04.495Z,6128
2023-03-04T08:19:07.267Z,6060
2023-03-04T08:20:11.049Z,5976
2023-03-04T08:21:14.359Z,5956
2023-03-04T08:22:18.051Z,5884
2023-03-04T08:23:21.428Z,5608
2023-03-04T08:24:24.672Z,5240
2023-03-04T08:25:27.998Z,5008
2023-03-04T08:26:31.130Z,5008
2023-03-04T08:27:33.868Z,5120
2023-03-04T08:28:37.984Z,5360
2023-03-04T08:29:41.100Z,5520
2023-03-04T08:30:44.030Z,5600
2023-03-04T08:31:48.646Z,5868
2023-03-04T08:32:53.048Z,5988
2023-03-04T08:33:56.446Z,6156
2023-03-04T08:35:00.177Z,6348
2023-03-04T08:36:03.512Z,6492
2023-03-04T08:37:06.367Z,6440
2023-03-04T08:38:09.468Z,6520
2023-03-04T08:39:12.471Z,6800
2023-03-04T08:40:15.647Z,6848
2023-03-04T08:41:18.377Z,6768
2023-03-04T08:42:21.443Z,6560
2023-03-04T08:43:24.814Z,6252
2023-03-04T08:44:28.476Z,6224
2023-03-04T08:45:31.710Z,6176
2023-03-04T08:46:35.221Z,6232
2023-03-04T08:47:38.571Z,6104
2023-03-04T08:48:41.418Z,5844
2023-03-04T08:49:44.749Z,5664
2023-03-04T08:50:47.167Z,5472
2023-03-04T08:51:49.963Z,5400
2023-03-04T08:52:53.615Z,5428
2023-03-04T08:53:57.067Z,5448
2023-03-04T08:54:59.587Z,5464
2023-03-04T08:56:03.216Z,5700
2023-03-04T08:57:06.359Z,6088
2023-03-04T08:58:08.819Z,6220
2023-03-04T08:59:11.925Z,6596
2023-03-04T09:00:16.080Z,6952
2023-03-04T09:01:19.432Z,6864
2023-03-04T09:02:22.498Z,6468
2023-03-04T09:03:25.917Z,6480
2023-03-04T09:04:29.988Z,6572
2023-03-04T09:05:33.318Z,6704
2023-03-04T09:06:36.481Z,6600
2023-03-04T09:07:39.570Z,6316
2023-03-04T09:08:42.685Z,6044
2023-03-04T09:09:46.097Z,5864
2023-03-04T09:10:49.167Z,5632
2023-03-04T09:11:51.779Z,5400
2023-03-04T09:12:55.508Z,5088
2023-03-04T09:13:58.361Z,4796
2023-03-04T09:15:10.974Z,4648
2023-03-04T09:16:15.848Z,4564
2023-03-04T09:17:19.981Z,4476
2023-03-04T09:18:22.767Z,4492
2023-03-04T09:19:25.482Z,4668
2023-03-04T09:20:28.838Z,4920
2023-03-04T09:21:31.503Z,5268
2023-03-04T09:22:35.562Z,5756
2023-03-04T09:23:38.966Z,6224
2023-03-04T09:24:41.702Z,6824
2023-03-04T09:25:44.434Z,7256
2023-03-04T09:26:47.502Z,7232
2023-03-04T09:27:50.928Z,7584
2023-03-04T09:28:54.433Z,8168
2023-03-04T09:29:58.192Z,8224
2023-03-04T09:31:01.410Z,7988
2023-03-04T09:32:05.723Z,7952
2023-03-04T09:33:09.865Z,7840
2023-03-04T09:34:12.784Z,7504
2023-03-04T09:35:15.765Z,7520
2023-03-04T09:36:19.391Z,8128
2023-03-04T09:37:22.837Z,8612
2023-03-04T09:38:25.930Z,8556
2023-03-04T09:39:28.623Z,7948
2023-03-04T09:40:32.295Z,7488
2023-03-04T09:41:35.314Z,7260
2023-03-04T09:42:39.310Z,7196
2023-03-04T09:43:43.110Z,7072
2023-03-04T09:44:46.144Z,7144
2023-03-04T09:45:49.603Z,7312
2023-03-04T09:46:52.789Z,7512
2023-03-04T09:47:56.970Z,7640
2023-03-04T09:49:00.576Z,7784
2023-03-04T09:50:03.813Z,7896
2023-03-04T09:51:07.193Z,7852
2023-03-04T09:52:10.849Z,7956
2023-03-04T09:53:13.942Z,8196
2023-03-04T09:54:17.026Z,8352
2023-03-04T09:55:20.017Z,8428
2023-03-04T09:56:23.866Z,8364
2023-03-04T09:57:27.628Z,8416
2023-03-04T09:58:31.101Z,8772
2023-03-04T09:59:34.268Z,9632
2023-03-04T10:00:37.414Z,10564
2023-03-04T10:01:40.284Z,11640
2023-03-04T10:02:42.834Z,11944
2023-03-04T10:03:46.424Z,12144
2023-03-04T10:04:50.323Z,11928
2023-03-04T10:05:53.887Z,11672
2023-03-04T10:06:57.072Z,11252
2023-03-04T10:08:00.447Z,10808
2023-03-04T10:09:03.899Z,11004
2023-03-04T10:10:06.399Z,11144
2023-03-04T10:11:10.044Z,11040
2023-03-04T10:12:12.925Z,11124
2023-03-04T10:13:16.161Z,11008
2023-03-04T10:14:19.511Z,11168
2023-03-04T10:15:22.984Z,11144
2023-03-04T10:16:26.783Z,11080
2023-03-04T10:17:29.487Z,10864
2023-03-04T10:18:32.286Z,10520
2023-03-04T10:19:36.089Z,10064
2023-03-04T10:20:39.199Z,9744
2023-03-04T10:21:42.549Z,9732
2023-03-04T10:22:46.305Z,9748
2023-03-04T10:23:49.672Z,9848
2023-03-04T10:24:52.476Z,9772
2023-03-04T10:25:55.893Z,9928
2023-03-04T10:26:58.962Z,9968
2023-03-04T10:28:02.743Z,9920
2023-03-04T10:29:05.967Z,10060
2023-03-04T10:30:08.524Z,9544
2023-03-04T10:31:11.055Z,9188
2023-03-04T10:32:14.205Z,9600
2023-03-04T10:33:17.802Z,9608
2023-03-04T10:34:21.430Z,9188
2023-03-04T10:35:25.269Z,9040
2023-03-04T10:36:29.620Z,9520
2023-03-04T10:37:33.719Z,9664
2023-03-04T10:38:36.298Z,9880
2023-03-04T10:39:39.312Z,9856
2023-03-04T10:40:44.581Z,9656
2023-03-04T10:41:48.748Z,8920
2023-03-04T10:42:52.972Z,8156
2023-03-04T10:43:55.684Z,8088
2023-03-04T10:44:58.683Z,8092
2023-03-04T10:46:02.544Z,7768
2023-03-04T10:47:06.224Z,8068
2023-03-04T10:48:09.345Z,8924
2023-03-04T10:49:13.423Z,9480
2023-03-04T10:50:16.889Z,9136
2023-03-04T10:51:20.961Z,8620
2023-03-04T10:52:24.401Z,8360
2023-03-04T10:53:27.212Z,8228
2023-03-04T10:54:30.964Z,9240
2023-03-04T10:55:33.956Z,11940
2023-03-04T10:56:38.036Z,13636
2023-03-04T10:57:41.675Z,13164
2023-03-04T10:58:44.439Z,12640
2023-03-04T10:59:47.928Z,12824
2023-03-04T11:00:50.790Z,13624
2023-03-04T11:01:53.673Z,13560
2023-03-04T11:02:56.717Z,13128
2023-03-04T11:03:59.730Z,12888
2023-03-04T11:05:03.929Z,13816
2023-03-04T11:06:07.292Z,15216
2023-03-04T11:07:11.176Z,15096
2023-03-04T11:08:14.003Z,14120
2023-03-04T11:09:18.000Z,14380
2023-03-04T11:10:20.748Z,13520
2023-03-04T11:11:24.517Z,13288
2023-03-04T11:12:27.909Z,13344
2023-03-04T11:13:30.714Z,13280
2023-03-04T11:14:33.248Z,13360
2023-03-04T11:15:35.722Z,12316
2023-03-04T11:16:39.520Z,11568
2023-03-04T11:17:43.066Z,11932
2023-03-04T11:18:46.152Z,13020
2023-03-04T11:19:48.889Z,13116
2023-03-04T11:20:51.990Z,13344
2023-03-04T11:21:55.049Z,13192
2023-03-04T11:22:58.604Z,13420
2023-03-04T11:24:02.024Z,13540
2023-03-04T11:25:05.445Z,13684
2023-03-04T11:26:07.339Z,13704
2023-03-04T11:27:10.951Z,14292
2023-03-04T11:28:14.339Z,14448
2023-03-04T11:29:17.332Z,14036
2023-03-04T11:30:20.709Z,14324
2023-03-04T11:31:24.248Z,15812
2023-03-04T11:32:27.834Z,15680
2023-03-04T11:33:31.115Z,15644
2023-03-04T11:34:33.942Z,16076
2023-03-04T11:35:37.633Z,17092
2023-03-04T11:36:41.608Z,16236
2023-03-04T11:37:44.319Z,15464
2023-03-04T11:38:48.135Z,16836
2023-03-04T11:39:51.638Z,17552
2023-03-04T11:40:55.027Z,16544
2023-03-04T11:41:58.013Z,16548
2023-03-04T11:43:01.171Z,18348
2023-03-04T11:44:04.149Z,18912
2023-03-04T11:45:15.684Z,19712
2023-03-04T11:46:36.300Z,22016
2023-03-04T11:47:40.613Z,31296
2023-03-04T11:48:43.669Z,28576
2023-03-04T11:49:46.386Z,24352
2023-03-04T11:50:48.892Z,16108
2023-03-04T11:51:51.634Z,12668
2023-03-04T11:52:54.345Z,12176
2023-03-04T11:53:58.513Z,11932
2023-03-04T11:55:02.312Z,13400
2023-03-04T11:56:05.310Z,14976
2023-03-04T11:57:07.915Z,14016
2023-03-04T11:58:13.623Z,14276
2023-03-04T11:59:16.693Z,13836
2023-03-04T12:00:19.758Z,12916
2023-03-04T12:01:22.209Z,12360
2023-03-04T12:02:26.828Z,11980
2023-03-04T12:03:30.217Z,11596
2023-03-04T12:04:33.821Z,11128
2023-03-04T12:05:37.314Z,10520
2023-03-04T12:06:40.829Z,9584
2023-03-04T12:07:43.839Z,9312
2023-03-04T12:08:46.645Z,9220
2023-03-04T12:09:50.176Z,8740
2023-03-04T12:10:53.407Z,9204
2023-03-04T12:11:56.472Z,9844
2023-03-04T12:12:58.436Z,11700
2023-03-04T12:14:01.629Z,12108
2023-03-04T12:15:05.311Z,12032
2023-03-04T12:16:08.246Z,12968
2023-03-04T12:17:11.794Z,13708
2023-03-04T12:18:15.164Z,13052
2023-03-04T12:19:19.396Z,12576
2023-03-04T12:20:22.961Z,12308
2023-03-04T12:21:26.981Z,12636
2023-03-04T12:22:29.618Z,14060
2023-03-04T12:23:32.707Z,14416
2023-03-04T12:24:35.579Z,13160
2023-03-04T12:25:39.453Z,13204
2023-03-04T12:26:42.979Z,15372
2023-03-04T12:27:46.213Z,17192
2023-03-04T12:28:48.758Z,17092
2023-03-04T12:29:51.552Z,15312
2023-03-04T12:30:54.305Z,14720
2023-03-04T12:31:58.083Z,16228
2023-03-04T12:33:01.744Z,18816
2023-03-04T12:34:05.277Z,21088
2023-03-04T12:35:08.092Z,25792
2023-03-04T12:36:11.219Z,25184
2023-03-04T12:37:14.028Z,28032
2023-03-04T12:38:19.299Z,26048
2023-03-04T12:39:23.055Z,25344
2023-03-04T12:40:26.515Z,50432
2023-03-04T12:41:30.800Z,23808
2023-03-04T12:42:34.545Z,23712
2023-03-04T12:43:37.533Z,22464
2023-03-04T12:44:40.634Z,21984
2023-03-04T12:45:44.106Z,53152
2023-03-04T12:46:47.265Z,24352
2023-03-04T12:47:50.220Z,27008
2023-03-04T12:48:53.565Z,27584
2023-03-04T12:49:57.353Z,22880
2023-03-04T12:51:00.414Z,21056
2023-03-04T12:52:04.201Z,20096
2023-03-04T12:53:07.344Z,18816
2023-03-04T12:54:10.374Z,20928
2023-03-04T12:55:13.514Z,21600
2023-03-04T12:56:17.253Z,56544
2023-03-04T12:57:20.793Z,21792
2023-03-04T12:58:24.324Z,16680
2023-03-04T12:59:27.702Z,22944
2023-03-04T13:00:30.704Z,13336
2023-03-04T13:01:33.701Z,12700
2023-03-04T13:02:36.607Z,12716
2023-03-04T13:03:40.153Z,38208
2023-03-04T13:04:44.038Z,14384
2023-03-04T13:05:47.036Z,12128
2023-03-04T13:06:49.766Z,13472
2023-03-04T13:07:53.782Z,15664
2023-03-04T13:08:57.219Z,14824
2023-03-04T13:10:00.548Z,14036
2023-03-04T13:11:03.937Z,13648
2023-03-04T13:12:06.943Z,13560
2023-03-04T13:13:10.753Z,14172
2023-03-04T13:14:14.554Z,14324
2023-03-04T13:15:17.656Z,13744
2023-03-04T13:16:20.886Z,11500
2023-03-04T13:17:24.284Z,9468
2023-03-04T13:18:27.069Z,8480
2023-03-04T13:19:30.129Z,8252
2023-03-04T13:20:33.233Z,7220
2023-03-04T13:21:36.637Z,6088
2023-03-04T13:22:39.359Z,5696
2023-03-04T13:23:42.223Z,5560
2023-03-04T13:24:46.245Z,5224
2023-03-04T13:25:49.120Z,4628
2023-03-04T13:26:52.230Z,4444
2023-03-04T13:27:55.920Z,4824
2023-03-04T13:29:01.270Z,6108
2023-03-04T13:30:04.426Z,8516
2023-03-04T13:31:07.281Z,12056
2023-03-04T13:32:10.946Z,15884
2023-03-04T13:33:14.814Z,17484
2023-03-04T13:34:17.877Z,16496
2023-03-04T13:35:21.659Z,15012
2023-03-04T13:36:24.644Z,14792
2023-03-04T13:37:27.364Z,18464
2023-03-04T13:38:31.110Z,31680
2023-03-04T13:39:33.899Z,24416
2023-03-04T13:40:36.966Z,19104
2023-03-04T13:41:40.558Z,17388
2023-03-04T13:42:43.272Z,14428
2023-03-04T13:43:46.560Z,11524
2023-03-04T13:44:50.671Z,9744
2023-03-04T13:45:53.814Z,8888
2023-03-04T13:46:57.002Z,8692
2023-03-04T13:48:00.959Z,8732
2023-03-04T13:49:04.029Z,9068
2023-03-04T13:50:07.399Z,10004
2023-03-04T13:51:20.395Z,14232
2023-03-04T13:52:33.488Z,17024
2023-03-04T13:53:36.860Z,17212
2023-03-04T13:54:40.193Z,35808
2023-03-04T13:55:43.202Z,20256
2023-03-04T13:56:45.673Z,17232
2023-03-04T13:57:49.225Z,15892
2023-03-04T13:58:52.587Z,13764
2023-03-04T13:59:56.171Z,12388
2023-03-04T14:00:59.351Z,11716
2023-03-04T14:02:02.679Z,12620
2023-03-04T14:03:06.218Z,13768
2023-03-04T14:04:08.965Z,14176
2023-03-04T14:05:12.396Z,13268
2023-03-04T14:06:15.742Z,12328
2023-03-04T14:07:19.816Z,11136
2023-03-04T14:08:22.465Z,10224
2023-03-04T14:09:25.186Z,9476
2023-03-04T14:10:28.318Z,9756
2023-03-04T14:11:31.162Z,9328
2023-03-04T14:12:35.234Z,8684
2023-03-04T14:13:38.935Z,7760
2023-03-04T14:14:42.073Z,7048
2023-03-04T14:15:45.668Z,7772
2023-03-04T14:16:48.964Z,9260
2023-03-04T14:17:52.753Z,7192
2023-03-04T14:18:55.965Z,6640
2023-03-04T14:19:59.698Z,6240
2023-03-04T14:21:02.146Z,6152
2023-03-04T14:22:05.513Z,6008
2023-03-04T14:23:08.784Z,5612
2023-03-04T14:24:11.851Z,5028
2023-03-04T14:25:15.133Z,4464
2023-03-04T14:26:18.606Z,4068
2023-03-04T14:27:22.068Z,3988
2023-03-04T14:28:24.512Z,4328
2023-03-04T14:29:27.958Z,4660
2023-03-04T14:30:41.995Z,4684
2023-03-04T14:31:48.053Z,4624
2023-03-04T14:32:51.552Z,4604
2023-03-04T14:33:53.781Z,4644
2023-03-04T14:34:56.796Z,4836